Time;durP1;ratioP1;P1;durP2;ratioP2;P2;SDS_P1;SDS_P2;PMS_P1;PMS_P2;Temp;Humidity;BMP_temperature;BMP_pressure;BME280_temperature;BME280_humidity;BME280_pressure;Samples;Min_cycle;Max_cycle;Signal;HPM_P1;HPM_P2
2022/05/26 00:00:16;;;;;;;;;;;;;;;-144.12;100.00;72078.50;4994975;28;19921;-67
2022/05/26 00:02:41;;;;;;;;;;;;;;;-144.12;100.00;72078.50;4994211;28;19960;-65
2022/05/26 00:05:07;;;;;;;;;;;;;;;-144.12;100.00;72078.50;4993154;28;21595;-65
2022/05/26 00:07:32;;;;;;;;;;;;;;;-144.12;100.00;72078.50;4995223;28;20173;-66
2022/05/26 00:09:57;;;;;;;;;;;;;;;-144.12;100.00;72078.50;4990509;28;19976;-67
2022/05/26 00:12:23;;;;;;;;;;;;;;;-144.12;100.00;72078.50;4996946;28;20324;-63
2022/05/26 00:14:48;;;;;;;;;;;;;;;-144.12;100.00;72078.50;4993459;28;20281;-68
2022/05/26 00:17:13;;;;;;;;;;;;;;;-144.12;100.00;72078.50;4996965;28;20262;-62
2022/05/26 00:19:39;;;;;;;;;;;;;;;-144.12;100.00;72078.50;4996990;28;19917;-64
2022/05/26 00:22:04;;;;;;;;;;;;;;;-144.12;100.00;72078.50;5010902;28;19968;-64
2022/05/26 00:24:30;;;;;;;;;;;;;;;-144.12;100.00;72078.50;5012909;28;19914;-64
2022/05/26 00:26:55;;;;;;;;;;;;;;;-144.12;100.00;72078.50;4997841;28;19914;-62
2022/05/26 00:29:21;;;;;;;;;;;;;;;-144.12;100.00;72078.50;4993736;28;19913;-64
2022/05/26 00:31:46;;;;;;;;;;;;;;;-144.12;100.00;72078.50;4997515;28;19926;-64
2022/05/26 00:34:12;;;;;;;;;;;;;;;-144.12;100.00;72078.50;4999133;28;19913;-63
2022/05/26 00:36:43;;;;;;;;;;;;;;;-144.12;100.00;72078.50;4997559;28;19917;-65
2022/05/26 00:39:10;;;;;;;;;;;;;;;-144.12;100.00;72078.50;4992210;28;19967;-63
2022/05/26 00:41:39;;;;;;;;;;;;;;;-144.12;100.00;72078.50;5013786;28;19925;-65
2022/05/26 00:44:05;;;;;;;;;;;;;;;-144.12;100.00;72078.50;4999335;28;19999;-64
2022/05/26 00:46:36;;;;;;;;;;;;;;;-144.12;100.00;72078.50;4997592;28;19913;-61
2022/05/26 00:49:02;;;;;;;;;;;;;;;-144.12;100.00;72078.50;4997048;28;19917;-65
2022/05/26 00:51:31;;;;;;;;;;;;;;;-144.12;100.00;72078.50;4997448;28;20016;-61
2022/05/26 00:53:59;;;;;;;;;;;;;;;-144.12;100.00;72078.50;5002532;28;20012;-64
2022/05/26 00:56:42;;;;;;;;;;;;;;;-144.12;100.00;72078.50;5002093;28;19913;-64
2022/05/26 00:59:15;;;;;;;;;;;;;;;-144.12;100.00;72078.50;5001584;28;19920;-65
2022/05/26 01:01:40;;;;;;;;;;;;;;;-144.12;100.00;72078.50;4996232;28;19921;-65
2022/05/26 01:04:10;;;;;;;;;;;;;;;-144.12;100.00;72078.50;5001128;28;19917;-64
2022/05/26 01:06:41;;;;;;;;;;;;;;;-144.12;100.00;72078.50;4998740;28;19956;-64
2022/05/26 01:09:06;;;;;;;;;;;;;;;-144.12;100.00;72078.50;4997797;28;19921;-62
2022/05/26 01:11:33;;;;;;;;;;;;;;;-144.12;100.00;72078.50;4997631;28;19924;-65
2022/05/26 01:14:01;;;;;;;;;;;;;;;-144.12;100.00;72078.50;5002122;28;20357;-64
2022/05/26 01:16:43;;;;;;;;;;;;;;;-144.12;100.00;72078.50;4995611;28;20328;-65
2022/05/26 01:19:27;;;;;;;;;;;;;;;-144.12;100.00;72078.50;4994701;28;19949;-62
2022/05/26 01:21:53;;;;;;;;;;;;;;;-144.12;100.00;72078.50;4999810;28;19949;-63
2022/05/26 01:24:18;;;;;;;;;;;;;;;-144.12;100.00;72078.50;5001011;28;19918;-64
2022/05/26 01:27:02;;;;;;;;;;;;;;;-144.12;100.00;72078.50;4996310;28;19917;-64
2022/05/26 01:29:49;;;;;;;;;;;;;;;-144.12;100.00;72078.50;4997335;28;19959;-64
2022/05/26 01:32:14;;;;;;;;;;;;;;;-144.12;100.00;72078.50;4997138;28;19924;-64
2022/05/26 01:34:45;;;;;;;;;;;;;;;-144.12;100.00;72078.50;4999891;28;19917;-63
2022/05/26 01:37:35;;;;;;;;;;;;;;;-144.12;100.00;72078.50;4999818;28;19914;-64
2022/05/26 01:40:19;;;;;;;;;;;;;;;-144.12;100.00;72078.50;4995954;28;20671;-63
2022/05/26 01:43:03;;;;;;;;;;;;;;;-144.12;100.00;72078.50;4999379;28;19968;-65
2022/05/26 01:45:51;;;;;;;;;;;;;;;-144.12;100.00;72078.50;4997996;28;20396;-65
2022/05/26 01:48:23;;;;;;;;;;;;;;;-144.12;100.00;72078.50;4988375;28;19926;-63
2022/05/26 01:51:07;;;;;;;;;;;;;;;-144.12;100.00;72078.50;4992576;28;19929;-62
2022/05/26 01:53:38;;;;;;;;;;;;;;;-144.12;100.00;72078.50;4999845;28;19918;-63
2022/05/26 01:56:24;;;;;;;;;;;;;;;-144.12;100.00;72078.50;4999373;28;20302;-65
2022/05/26 01:58:53;;;;;;;;;;;;;;;-144.12;100.00;72078.50;4992343;28;19921;-65
2022/05/26 02:01:22;;;;;;;;;;;;;;;-144.12;100.00;72078.50;5000700;28;20434;-63
2022/05/26 02:03:49;;;;;;;;;;;;;;;-144.12;100.00;72078.50;4999615;28;19914;-66
2022/05/26 02:06:19;;;;;;;;;;;;;;;-144.12;100.00;72078.50;4994494;28;19999;-65
2022/05/26 02:09:08;;;;;;;;;;;;;;;-144.12;100.00;72078.50;5014359;28;19944;-64
2022/05/26 02:11:36;;;;;;;;;;;;;;;-144.12;100.00;72078.50;4998193;28;20016;-63
2022/05/26 02:14:21;;;;;;;;;;;;;;;-144.12;100.00;72078.50;4995480;28;19913;-64
2022/05/26 02:16:59;;;;;;;;;;;;;;;-144.12;100.00;72078.50;4998191;28;19929;-63
2022/05/26 02:19:35;;;;;;;;;;;;;;;-144.12;100.00;72078.50;4999560;28;19914;-62
2022/05/26 02:22:26;;;;;;;;;;;;;;;-144.12;100.00;72078.50;4996890;28;19968;-65
2022/05/26 02:24:58;;;;;;;;;;;;;;;-144.12;100.00;72078.50;4990036;28;19914;-66
2022/05/26 02:27:26;;;;;;;;;;;;;;;-144.12;100.00;72078.50;4984669;28;20410;-63
2022/05/26 02:29:52;;;;;;;;;;;;;;;-144.12;100.00;72078.50;4995467;28;19960;-64
2022/05/26 02:32:29;;;;;;;;;;;;;;;-144.12;100.00;72078.50;4996356;28;20411;-66
2022/05/26 02:34:56;;;;;;;;;;;;;;;-144.12;100.00;72078.50;4991837;28;19929;-65
2022/05/26 02:37:22;;;;;;;;;;;;;;;-144.12;100.00;72078.50;5014682;28;20317;-62
2022/05/26 02:39:48;;;;;;;;;;;;;;;-144.12;100.00;72078.50;4993500;28;20053;-66
2022/05/26 02:42:13;;;;;;;;;;;;;;;-144.12;100.00;72078.50;4999519;28;20193;-64
2022/05/26 02:44:41;;;;;;;;;;;;;;;-144.12;100.00;72078.50;5001112;28;19920;-66
2022/05/26 02:47:06;;;;;;;;;;;;;;;-144.12;100.00;72078.50;5014176;28;19921;-65
2022/05/26 02:49:51;;;;;;;;;;;;;;;-144.12;100.00;72078.50;5011016;28;19914;-66
2022/05/26 02:52:16;;;;;;;;;;;;;;;-144.12;100.00;72078.50;5013312;28;19921;-63
2022/05/26 02:54:57;;;;;;;;;;;;;;;-144.12;100.00;72078.50;5013653;28;20045;-65
2022/05/26 02:57:33;;;;;;;;;;;;;;;-144.12;100.00;72078.50;5001456;28;19918;-61
2022/05/26 03:00:14;;;;;;;;;;;;;;;-144.12;100.00;72078.50;4996832;28;19913;-65
2022/05/26 03:02:51;;;;;;;;;;;;;;;-144.12;100.00;72078.50;4999332;28;20344;-65
2022/05/26 03:05:20;;;;;;;;;;;;;;;-144.12;100.00;72078.50;4997893;28;19968;-62
2022/05/26 03:07:48;;;;;;;;;;;;;;;-144.12;100.00;72078.50;4997026;28;19924;-65
2022/05/26 03:10:15;;;;;;;;;;;;;;;-144.12;100.00;72078.50;4999221;28;19914;-64
2022/05/26 03:12:40;;;;;;;;;;;;;;;-144.12;100.00;72078.50;5000088;28;19914;-66
2022/05/26 03:15:07;;;;;;;;;;;;;;;-144.12;100.00;72078.50;4989848;28;20457;-65
2022/05/26 03:17:32;;;;;;;;;;;;;;;-144.12;100.00;72078.50;5007674;28;19922;-66
2022/05/26 03:19:58;;;;;;;;;;;;;;;-144.12;100.00;72078.50;4999589;28;19914;-66
2022/05/26 03:22:23;;;;;;;;;;;;;;;-144.12;100.00;72078.50;5001040;28;19924;-63
2022/05/26 03:24:51;;;;;;;;;;;;;;;-144.12;100.00;72078.50;4999828;28;19913;-66
2022/05/26 03:27:16;;;;;;;;;;;;;;;-144.12;100.00;72078.50;5000408;28;19917;-66
2022/05/26 03:29:42;;;;;;;;;;;;;;;-144.12;100.00;72078.50;4993945;28;19941;-65
2022/05/26 03:32:07;;;;;;;;;;;;;;;-144.12;100.00;72078.50;4999981;28;20380;-65
2022/05/26 03:43:05;;;;;;;;;;;;;;;-144.12;100.00;72078.50;4978011;28;20000;-63
2022/05/26 03:45:33;;;;;;;;;;;;;;;-144.12;100.00;72078.50;4986673;28;20037;-64
2022/05/26 03:47:58;;;;;;;;;;;;;;;-144.12;100.00;72078.50;4985411;28;19918;-64
2022/05/26 03:50:24;;;;;;;;;;;;;;;-144.12;100.00;72078.50;4987502;28;20446;-63
2022/05/26 03:52:51;;;;;;;;;;;;;;;-144.12;100.00;72078.50;4987083;28;20004;-62
2022/05/26 03:55:16;;;;;;;;;;;;;;;-144.12;100.00;72078.50;4987124;28;19917;-64
2022/05/26 03:57:42;;;;;;;;;;;;;;;-144.12;100.00;72078.50;4984796;28;20083;-64
2022/05/26 04:00:08;;;;;;;;;;;;;;;-144.12;100.00;72078.50;4988520;28;19914;-63
2022/05/26 04:02:42;;;;;;;;;;;;;;;-144.12;100.00;72078.50;4991474;28;19925;-64
2022/05/26 04:05:08;;;;;;;;;;;;;;;-144.12;100.00;72078.50;4987765;28;20244;-63
2022/05/26 04:07:34;;;;;;;;;;;;;;;-144.12;100.00;72078.50;4984489;28;20014;-63
2022/05/26 04:10:00;;;;;;;;;;;;;;;-144.12;100.00;72078.50;4986681;28;19957;-64
2022/05/26 04:12:25;;;;;;;;;;;;;;;-144.12;100.00;72078.50;4986542;28;19965;-64
2022/05/26 04:14:51;;;;;;;;;;;;;;;-144.12;100.00;72078.50;4987382;28;19926;-63
2022/05/26 04:17:16;;;;;;;;;;;;;;;-144.12;100.00;72078.50;4981763;28;19999;-63
2022/05/26 04:19:41;;;;;;;;;;;;;;;-144.12;100.00;72078.50;4990055;28;19914;-63
2022/05/26 04:22:23;;;;;;;;;;;;;;;-144.12;100.00;72078.50;4987849;28;19913;-65
2022/05/26 04:24:49;;;;;;;;;;;;;;;-144.12;100.00;72078.50;4989142;28;19921;-62
2022/05/26 04:27:16;;;;;;;;;;;;;;;-144.12;100.00;72078.50;4989155;28;19921;-65
2022/05/26 04:29:41;;;;;;;;;;;;;;;-144.12;100.00;72078.50;4983636;28;19914;-63
2022/05/26 04:32:07;;;;;;;;;;;;;;;-144.12;100.00;72078.50;4988865;28;19924;-63
2022/05/26 04:34:32;;;;;;;;;;;;;;;-144.12;100.00;72078.50;4989142;28;20297;-62
2022/05/26 04:36:58;;;;;;;;;;;;;;;-144.12;100.00;72078.50;4989052;28;19913;-63
2022/05/26 04:39:24;;;;;;;;;;;;;;;-144.12;100.00;72078.50;5000965;28;19920;-64
2022/05/26 04:41:49;;;;;;;;;;;;;;;-144.12;100.00;72078.50;4986872;28;19936;-63
2022/05/26 04:44:16;;;;;;;;;;;;;;;-144.12;100.00;72078.50;4989924;28;20012;-63
2022/05/26 04:46:41;;;;;;;;;;;;;;;-144.12;100.00;72078.50;4989356;28;19917;-63
2022/05/26 04:49:07;;;;;;;;;;;;;;;-144.12;100.00;72078.50;4986058;28;19921;-62
2022/05/26 04:51:34;;;;;;;;;;;;;;;-144.12;100.00;72078.50;4988988;28;19918;-65
2022/05/26 04:54:00;;;;;;;;;;;;;;;-144.12;100.00;72078.50;4988786;28;20009;-63
2022/05/26 04:56:25;;;;;;;;;;;;;;;-144.12;100.00;72078.50;4971604;28;19992;-64
2022/05/26 04:58:50;;;;;;;;;;;;;;;-144.12;100.00;72078.50;4989053;28;20464;-63
2022/05/26 05:01:19;;;;;;;;;;;;;;;-144.12;100.00;72078.50;4985890;28;20392;-62
2022/05/26 05:03:44;;;;;;;;;;;;;;;-144.12;100.00;72078.50;4988392;28;19917;-66
2022/05/26 05:06:10;;;;;;;;;;;;;;;-144.12;100.00;72078.50;4989847;28;20262;-63
2022/05/26 05:08:35;;;;;;;;;;;;;;;-144.12;100.00;72078.50;4989505;28;19914;-63
2022/05/26 05:11:03;;;;;;;;;;;;;;;-144.12;100.00;72078.50;4983685;28;19925;-65
2022/05/26 05:13:29;;;;;;;;;;;;;;;-144.12;100.00;72078.50;4989395;28;20008;-66
2022/05/26 05:16:04;;;;;;;;;;;;;;;-144.12;100.00;72078.50;4988835;28;19952;-63
2022/05/26 05:18:32;;;;;;;;;;;;;;;-144.12;100.00;72078.50;5000961;28;19914;-62
2022/05/26 05:20:59;;;;;;;;;;;;;;;-144.12;100.00;72078.50;5001253;28;20383;-64
2022/05/26 05:23:26;;;;;;;;;;;;;;;-144.12;100.00;72078.50;4988540;28;19913;-63
2022/05/26 05:25:54;;;;;;;;;;;;;;;-144.12;100.00;72078.50;4982999;28;19950;-64
2022/05/26 05:28:23;;;;;;;;;;;;;;;-144.12;100.00;72078.50;4989772;28;19998;-63
2022/05/26 05:30:53;;;;;;;;;;;;;;;-144.12;100.00;72078.50;4985301;28;20213;-63
2022/05/26 05:33:25;;;;;;;;;;;;;;;-144.12;100.00;72078.50;4987448;28;20004;-64
2022/05/26 05:35:55;;;;;;;;;;;;;;;-144.12;100.00;72078.50;4997303;28;19976;-63
2022/05/26 05:38:21;;;;;;;;;;;;;;;-144.12;100.00;72078.50;5017958;22;20166;-72
2022/05/26 05:40:48;;;;;;;;;;;;;;;-144.12;100.00;72078.50;5027484;28;20392;-72
2022/05/26 05:43:13;;;;;;;;;;;;;;;-144.12;100.00;72078.50;5032503;28;20012;-72
2022/05/26 05:45:39;;;;;;;;;;;;;;;-144.12;100.00;72078.50;5034104;28;20472;-72
2022/05/26 05:48:05;;;;;;;;;;;;;;;-144.12;100.00;72078.50;5013851;28;19967;-75
2022/05/26 05:50:30;;;;;;;;;;;;;;;-144.12;100.00;72078.50;5012839;28;19913;-72
2022/05/26 05:52:56;;;;;;;;;;;;;;;-144.12;100.00;72078.50;5032900;28;19913;-72
2022/05/26 05:55:22;;;;;;;;;;;;;;;-144.12;100.00;72078.50;5032664;28;19912;-72
2022/05/26 05:57:48;;;;;;;;;;;;;;;-144.12;100.00;72078.50;5012484;28;19964;-72
2022/05/26 06:00:13;;;;;;;;;;;;;;;-144.12;100.00;72078.50;5013398;28;19963;-72
2022/05/26 06:02:39;;;;;;;;;;;;;;;-144.12;100.00;72078.50;5012570;28;19913;-72
2022/05/26 06:05:05;;;;;;;;;;;;;;;-144.12;100.00;72078.50;5031908;28;19919;-73
2022/05/26 06:07:30;;;;;;;;;;;;;;;-144.12;100.00;72078.50;5027446;28;20432;-72
2022/05/26 06:09:55;;;;;;;;;;;;;;;-144.12;100.00;72078.50;5032115;28;20377;-72
2022/05/26 06:12:21;;;;;;;;;;;;;;;-144.12;100.00;72078.50;5033208;28;20304;-72
2022/05/26 06:14:46;;;;;;;;;;;;;;;-144.12;100.00;72078.50;5031586;28;19988;-72
2022/05/26 06:17:12;;;;;;;;;;;;;;;-144.12;100.00;72078.50;5028185;28;20003;-72
2022/05/26 06:19:38;;;;;;;;;;;;;;;-144.12;100.00;72078.50;5031947;28;19923;-72
2022/05/26 06:22:08;;;;;;;;;;;;;;;-144.12;100.00;72078.50;5027209;28;19967;-72
2022/05/26 06:24:33;;;;;;;;;;;;;;;-144.12;100.00;72078.50;5001267;28;20050;-72
2022/05/26 06:26:58;;;;;;;;;;;;;;;-144.12;100.00;72078.50;5015960;28;20000;-72
2022/05/26 06:37:38;;;;;;;;;;;;;;;-144.12;100.00;72078.50;5019196;28;19917;-72
2022/05/26 06:40:04;;;;;;;;;;;;;;;-144.12;100.00;72078.50;5030878;28;19967;-72
2022/05/26 06:42:30;;;;;;;;;;;;;;;-144.12;100.00;72078.50;5028283;28;20306;-72
2022/05/26 06:45:00;;;;;;;;;;;;;;;-144.12;100.00;72078.50;5031029;28;19970;-72
2022/05/26 06:47:26;;;;;;;;;;;;;;;-144.12;100.00;72078.50;5031238;28;19916;-73
2022/05/26 06:49:52;;;;;;;;;;;;;;;-144.12;100.00;72078.50;5019292;28;19967;-72
2022/05/26 06:52:21;;;;;;;;;;;;;;;-144.12;100.00;72078.50;5026172;28;20344;-71
2022/05/26 06:54:47;;;;;;;;;;;;;;;-144.12;100.00;72078.50;5026246;28;19928;-71
2022/05/26 06:57:13;;;;;;;;;;;;;;;-144.12;100.00;72078.50;5013326;28;19913;-72
2022/05/26 06:59:38;;;;;;;;;;;;;;;-144.12;100.00;72078.50;5016991;28;19917;-71
2022/05/26 07:02:04;;;;;;;;;;;;;;;-144.12;100.00;72078.50;5024008;28;19913;-71
2022/05/26 07:04:32;;;;;;;;;;;;;;;-144.12;100.00;72078.50;5029359;28;19921;-71
2022/05/26 07:06:58;;;;;;;;;;;;;;;-144.12;100.00;72078.50;5027986;28;19920;-71
2022/05/26 07:09:24;;;;;;;;;;;;;;;-144.12;100.00;72078.50;5028813;28;19913;-72
2022/05/26 07:11:49;;;;;;;;;;;;;;;-144.12;100.00;72078.50;5026268;28;19925;-72
2022/05/26 07:14:14;;;;;;;;;;;;;;;-144.12;100.00;72078.50;5011024;28;19920;-72
2022/05/26 07:16:41;;;;;;;;;;;;;;;-144.12;100.00;72078.50;5026120;28;20294;-71
2022/05/26 07:19:07;;;;;;;;;;;;;;;-144.12;100.00;72078.50;5028645;28;20003;-71
2022/05/26 07:21:33;;;;;;;;;;;;;;;-144.12;100.00;72078.50;5029853;28;20055;-72
2022/05/26 07:23:58;;;;;;;;;;;;;;;-144.12;100.00;72078.50;5011755;28;19917;-72
2022/05/26 07:26:24;;;;;;;;;;;;;;;-144.12;100.00;72078.50;5022900;28;19947;-72
2022/05/26 07:28:51;;;;;;;;;;;;;;;-144.12;100.00;72078.50;5027687;28;19931;-72
2022/05/26 07:31:17;;;;;;;;;;;;;;;-144.12;100.00;72078.50;5031374;28;19987;-71
2022/05/26 07:33:43;;;;;;;;;;;;;;;-144.12;100.00;72078.50;5013487;28;19920;-71
2022/05/26 07:41:16;;;;;;;;;;;;;;;-144.12;100.00;72078.50;5027149;28;19913;-71
2022/05/26 07:41:38;;;;;;;;;;;;;;;-144.12;100.00;72078.50;5021054;28;20403;-71
2022/05/26 07:44:04;;;;;;;;;;;;;;;-144.12;100.00;72078.50;5024407;28;19913;-72
2022/05/26 07:46:30;;;;;;;;;;;;;;;-144.12;100.00;72078.50;5017590;28;19959;-71
2022/05/26 07:48:55;;;;;;;;;;;;;;;-144.12;100.00;72078.50;5026918;28;19923;-71
2022/05/26 07:51:21;;;;;;;;;;;;;;;-144.12;100.00;72078.50;5024901;28;20000;-72
2022/05/26 07:53:47;;;;;;;;;;;;;;;-144.12;100.00;72078.50;5029811;28;19913;-71
2022/05/26 07:56:13;;;;;;;;;;;;;;;-144.12;100.00;72078.50;5022565;28;19913;-69
2022/05/26 07:58:38;;;;;;;;;;;;;;;-144.12;100.00;72078.50;5021770;28;20400;-71
2022/05/26 08:01:04;;;;;;;;;;;;;;;-144.12;100.00;72078.50;5002479;28;19913;-71
2022/05/26 08:03:30;;;;;;;;;;;;;;;-144.12;100.00;72078.50;5023352;28;19913;-71
2022/05/26 08:05:55;;;;;;;;;;;;;;;-144.12;100.00;72078.50;5020599;28;19921;-71
2022/05/26 08:08:21;;;;;;;;;;;;;;;-144.12;100.00;72078.50;5027587;28;19912;-72
2022/05/26 08:10:46;;;;;;;;;;;;;;;-144.12;100.00;72078.50;5014940;28;19925;-71
2022/05/26 08:13:11;;;;;;;;;;;;;;;-144.12;100.00;72078.50;5019387;28;19919;-71
2022/05/26 08:15:37;;;;;;;;;;;;;;;-144.12;100.00;72078.50;5019436;28;20003;-71
2022/05/26 08:18:02;;;;;;;;;;;;;;;-144.12;100.00;72078.50;5025865;28;19916;-71
2022/05/26 08:20:27;;;;;;;;;;;;;;;-144.12;100.00;72078.50;5026400;28;19913;-71
2022/05/26 08:22:53;;;;;;;;;;;;;;;-144.12;100.00;72078.50;5021632;28;20008;-72
2022/05/26 08:25:18;;;;;;;;;;;;;;;-144.12;100.00;72078.50;5028506;28;19916;-71
2022/05/26 08:27:44;;;;;;;;;;;;;;;-144.12;100.00;72078.50;5030044;28;20007;-71
2022/05/26 08:30:09;;;;;;;;;;;;;;;-144.12;100.00;72078.50;5030936;28;19948;-71
2022/05/26 08:32:35;;;;;;;;;;;;;;;-144.12;100.00;72078.50;5015455;28;20381;-71
2022/05/26 08:35:02;;;;;;;;;;;;;;;-144.12;100.00;72078.50;5030001;28;19962;-71
2022/05/26 08:37:27;;;;;;;;;;;;;;;-144.12;100.00;72078.50;5031167;28;19935;-72
2022/05/26 08:39:53;;;;;;;;;;;;;;;-144.12;100.00;72078.50;5021698;28;20453;-71
2022/05/26 08:42:23;;;;;;;;;;;;;;;-144.12;100.00;72078.50;5030995;28;19913;-72
2022/05/26 08:44:49;;;;;;;;;;;;;;;-144.12;100.00;72078.50;5029393;28;20374;-72
2022/05/26 08:47:20;;;;;;;;;;;;;;;-144.12;100.00;72078.50;5019604;28;19960;-72
2022/05/26 08:49:58;;;;;;;;;;;;;;;-144.12;100.00;72078.50;5013335;28;19940;-71
2022/05/26 08:52:28;;;;;;;;;;;;;;;-144.12;100.00;72078.50;5012804;28;19917;-71
2022/05/26 08:55:07;;;;;;;;;;;;;;;-144.12;100.00;72078.50;5025278;28;19928;-71
2022/05/26 08:57:54;;;;;;;;;;;;;;;-144.12;100.00;72078.50;5011073;28;20374;-71
2022/05/26 09:00:21;;;;;;;;;;;;;;;-144.12;100.00;72078.50;5016418;28;19952;-71
2022/05/26 09:02:51;;;;;;;;;;;;;;;-144.12;100.00;72078.50;5016046;28;19916;-71
2022/05/26 09:05:18;;;;;;;;;;;;;;;-144.12;100.00;72078.50;5018117;28;20348;-71
2022/05/26 09:13:27;;;;;;;;;;;;;;;-144.12;100.00;72078.50;5017726;28;19913;-71
2022/05/26 09:15:52;;;;;;;;;;;;;;;-144.12;100.00;72078.50;4997074;28;19944;-72
2022/05/26 09:18:19;;;;;;;;;;;;;;;-144.12;100.00;72078.50;5012587;28;19913;-72
2022/05/26 09:20:46;;;;;;;;;;;;;;;-144.12;100.00;72078.50;5017083;28;19932;-70
2022/05/26 09:23:13;;;;;;;;;;;;;;;-144.12;100.00;72078.50;5003189;28;19979;-71
2022/05/26 09:26:08;;;;;;;;;;;;;;;-144.12;100.00;72078.50;5021450;28;19956;-70
2022/05/26 09:28:36;;;;;;;;;;;;;;;-144.12;100.00;72078.50;5009283;28;19917;-70
2022/05/26 09:31:22;;;;;;;;;;;;;;;-144.12;100.00;72078.50;5019360;28;20456;-70
2022/05/26 09:34:07;;;;;;;;;;;;;;;-144.12;100.00;72078.50;5027329;28;19916;-70
2022/05/26 09:36:37;;;;;;;;;;;;;;;-144.12;100.00;72078.50;5022420;28;19970;-70
2022/05/26 09:39:04;;;;;;;;;;;;;;;-144.12;100.00;72078.50;5021830;28;19919;-70
2022/05/26 09:41:36;;;;;;;;;;;;;;;-144.12;100.00;72078.50;5020676;28;20486;-74
2022/05/26 09:44:02;;;;;;;;;;;;;;;-144.12;100.00;72078.50;5021656;28;19978;-70
2022/05/26 09:46:28;;;;;;;;;;;;;;;-144.12;100.00;72078.50;5023442;28;19917;-71
2022/05/26 09:49:07;;;;;;;;;;;;;;;-144.12;100.00;72078.50;5016454;28;19919;-70
2022/05/26 09:51:44;;;;;;;;;;;;;;;-144.12;100.00;72078.50;5018521;28;19921;-69
2022/05/26 09:54:22;;;;;;;;;;;;;;;-144.12;100.00;72078.50;5014057;28;19913;-70
2022/05/26 09:56:49;;;;;;;;;;;;;;;-144.12;100.00;72078.50;5011903;28;20014;-73
2022/05/26 09:59:31;;;;;;;;;;;;;;;-144.12;100.00;72078.50;5000493;28;19921;-70
2022/05/26 10:02:11;;;;;;;;;;;;;;;-144.12;100.00;72078.50;5011912;28;20123;-73
2022/05/26 10:04:46;;;;;;;;;;;;;;;-144.12;100.00;72078.50;5020774;28;20297;-71
2022/05/26 10:07:18;;;;;;;;;;;;;;;-144.12;100.00;72078.50;5023234;28;20004;-71
2022/05/26 10:09:43;;;;;;;;;;;;;;;-144.12;100.00;72078.50;5022397;28;19917;-71
2022/05/26 10:12:17;;;;;;;;;;;;;;;-144.12;100.00;72078.50;5019486;28;19928;-71
2022/05/26 10:15:03;;;;;;;;;;;;;;;-144.12;100.00;72078.50;5027313;28;19989;-71
2022/05/26 10:17:28;;;;;;;;;;;;;;;-144.12;100.00;72078.50;5021276;28;20361;-71
2022/05/26 10:20:03;;;;;;;;;;;;;;;-144.12;100.00;72078.50;5021195;28;19964;-70
2022/05/26 10:22:28;;;;;;;;;;;;;;;-144.12;100.00;72078.50;5018849;28;20012;-72
2022/05/26 10:24:54;;;;;;;;;;;;;;;-144.12;100.00;72078.50;5013236;28;20007;-70
2022/05/26 10:27:22;;;;;;;;;;;;;;;-144.12;100.00;72078.50;5020536;28;20373;-72
2022/05/26 10:29:47;;;;;;;;;;;;;;;-144.12;100.00;72078.50;5015956;28;19943;-71
2022/05/26 10:32:32;;;;;;;;;;;;;;;-144.12;100.00;72078.50;5016979;28;19929;-70
2022/05/26 10:35:06;;;;;;;;;;;;;;;-144.12;100.00;72078.50;5009633;28;19975;-71
2022/05/26 10:37:50;;;;;;;;;;;;;;;-144.12;100.00;72078.50;4996545;28;19963;-71
2022/05/26 10:40:28;;;;;;;;;;;;;;;-144.12;100.00;72078.50;5009992;28;19920;-75
2022/05/26 10:43:12;;;;;;;;;;;;;;;-144.12;100.00;72078.50;5018851;28;19913;-71
2022/05/26 10:45:42;;;;;;;;;;;;;;;-144.12;100.00;72078.50;5015043;28;19925;-71
2022/05/26 10:48:31;;;;;;;;;;;;;;;-144.12;100.00;72078.50;5027903;28;19920;-70
2022/05/26 10:51:02;;;;;;;;;;;;;;;-144.12;100.00;72078.50;4975388;28;19963;-71
2022/05/26 10:53:28;;;;;;;;;;;;;;;-144.12;100.00;72078.50;5018797;28;20003;-70
2022/05/26 10:55:53;;;;;;;;;;;;;;;-144.12;100.00;72078.50;5010355;28;20004;-71
2022/05/26 10:58:32;;;;;;;;;;;;;;;-144.12;100.00;72078.50;5009648;28;19913;-70
2022/05/26 11:01:24;;;;;;;;;;;;;;;-144.12;100.00;72078.50;5000022;28;19928;-69
2022/05/26 11:03:51;;;;;;;;;;;;;;;-144.12;100.00;72078.50;4977824;28;19928;-72
2022/05/26 11:06:19;;;;;;;;;;;;;;;-144.12;100.00;72078.50;5013780;28;19953;-69
2022/05/26 11:08:50;;;;;;;;;;;;;;;-144.12;100.00;72078.50;5017351;28;20370;-70
2022/05/26 11:11:15;;;;;;;;;;;;;;;-144.12;100.00;72078.50;4995293;28;19917;-71
2022/05/26 11:13:49;;;;;;;;;;;;;;;-144.12;100.00;72078.50;5020845;28;19917;-71
2022/05/26 11:19:13;;;;;;;;;;;;;;;-144.12;100.00;72078.50;5018273;28;19913;-70
2022/05/26 11:21:39;;;;;;;;;;;;;;;-144.12;100.00;72078.50;5011520;28;19924;-71
2022/05/26 11:24:07;;;;;;;;;;;;;;;-144.12;100.00;72078.50;5028925;28;19913;-71
2022/05/26 11:26:42;;;;;;;;;;;;;;;-144.12;100.00;72078.50;5025952;28;19913;-71
2022/05/26 11:29:20;;;;;;;;;;;;;;;-144.12;100.00;72078.50;5026664;28;19913;-69
2022/05/26 11:37:34;;;;;;;;;;;;;;;-144.12;100.00;72078.50;5013921;28;20337;-70
2022/05/26 11:40:02;;;;;;;;;;;;;;;-144.12;100.00;72078.50;5033273;22;19925;-70
2022/05/26 11:42:32;;;;;;;;;;;;;;;-144.12;100.00;72078.50;5005725;28;19929;-70
2022/05/26 11:45:16;;;;;;;;;;;;;;;-144.12;100.00;72078.50;5004738;28;19913;-71
2022/05/26 11:47:50;;;;;;;;;;;;;;;-144.12;100.00;72078.50;5007674;28;19924;-70
2022/05/26 11:50:21;;;;;;;;;;;;;;;-144.12;100.00;72078.50;4992291;28;19924;-70
2022/05/26 11:52:46;;;;;;;;;;;;;;;-144.12;100.00;72078.50;4976486;28;19925;-71
2022/05/26 11:55:25;;;;;;;;;;;;;;;-144.12;100.00;72078.50;4979916;28;19914;-70
2022/05/26 11:57:53;;;;;;;;;;;;;;;-144.12;100.00;72078.50;4981171;28;19968;-70
2022/05/26 12:00:21;;;;;;;;;;;;;;;-144.12;100.00;72078.50;4978219;28;19924;-69
2022/05/26 12:02:50;;;;;;;;;;;;;;;-144.12;100.00;72078.50;4974530;28;19926;-68
2022/05/26 12:05:28;;;;;;;;;;;;;;;-144.12;100.00;72078.50;4967681;28;19949;-70
2022/05/26 12:07:54;;;;;;;;;;;;;;;-144.12;100.00;72078.50;4979155;28;20301;-69
2022/05/26 12:10:21;;;;;;;;;;;;;;;-144.12;100.00;72078.50;4978444;28;19992;-69
2022/05/26 12:12:46;;;;;;;;;;;;;;;-144.12;100.00;72078.50;4976727;28;19926;-69
2022/05/26 12:15:20;;;;;;;;;;;;;;;-144.12;100.00;72078.50;4979239;28;19961;-69
2022/05/26 12:17:50;;;;;;;;;;;;;;;-144.12;100.00;72078.50;4984080;28;19921;-71
2022/05/26 12:20:15;;;;;;;;;;;;;;;-144.12;100.00;72078.50;4962683;28;20020;-70
2022/05/26 12:22:49;;;;;;;;;;;;;;;-144.12;100.00;72078.50;4992514;28;19964;-70
2022/05/26 12:25:28;;;;;;;;;;;;;;;-144.12;100.00;72078.50;4985368;28;20008;-70
2022/05/26 12:27:56;;;;;;;;;;;;;;;-144.12;100.00;72078.50;4985871;28;19949;-69
2022/05/26 12:30:36;;;;;;;;;;;;;;;-144.12;100.00;72078.50;4983464;28;20385;-69
2022/05/26 12:33:23;;;;;;;;;;;;;;;-144.12;100.00;72078.50;4973632;28;19918;-69
2022/05/26 12:36:07;;;;;;;;;;;;;;;-144.12;100.00;72078.50;4993367;28;19921;-69
2022/05/26 12:38:44;;;;;;;;;;;;;;;-144.12;100.00;72078.50;4987663;28;19914;-69
2022/05/26 12:41:13;;;;;;;;;;;;;;;-144.12;100.00;72078.50;5009765;28;20004;-69
2022/05/26 12:43:57;;;;;;;;;;;;;;;-144.12;100.00;72078.50;5003810;28;19917;-70
2022/05/26 12:46:43;;;;;;;;;;;;;;;-144.12;100.00;72078.50;4966756;28;20051;-70
2022/05/26 12:49:27;;;;;;;;;;;;;;;-144.12;100.00;72078.50;4992461;28;20035;-69
2022/05/26 12:52:06;;;;;;;;;;;;;;;-144.12;100.00;72078.50;4995558;28;20439;-69
2022/05/26 12:54:31;;;;;;;;;;;;;;;-144.12;100.00;72078.50;4992364;28;19914;-69
2022/05/26 12:56:59;;;;;;;;;;;;;;;-144.12;100.00;72078.50;4994385;28;19913;-69
2022/05/26 12:59:26;;;;;;;;;;;;;;;-144.12;100.00;72078.50;5005795;28;19960;-70
2022/05/26 13:01:52;;;;;;;;;;;;;;;-144.12;100.00;72078.50;4986138;28;19997;-70
2022/05/26 13:04:22;;;;;;;;;;;;;;;-144.12;100.00;72078.50;4978794;28;20025;-70